KMCF

Macdill AFB Airport

Tampa, Florida, USA
METAR KMCF 141656Z AUTO 11006KT 10SM -RA FEW026 BKN055 BKN190 21/20 A3001 RMK AO2 RAE43DZB43E45RAB45 SLP165 P0000 T02110199 FZRANO $
Observed Flight Rules
Dec-14 @ 16:56 UTC (8 minutes ago) Visual Flight Rules
Wind Visibility Clouds Conditions
110° at 6 knots 10 miles
  • Few at 2,600' AGL
  • Broken at 5,500' AGL
  • Broken at 19,000' AGL
  • Light Rain
Temperatures Readings Precipitation
Current 21°C / 70°F
Dewpoint 20°C / 68°F
Humidity 94%
Altimeter 30.01" Hg
Pressure 1016.5 hPa
Elevation 4
Current Rain 0.005
METAR KMCF 141656Z AUTO 11006KT 10SM -RA FEW026 BKN055 BKN190 21/20 A3001 RMK AO2 RAE43DZB43E45RAB45 SLP165 P0000 T02110199 FZRANO $
Observed Flight Rules
Dec-14 @ 16:56 UTC
(8 minutes ago)
VFR
Wind Visibility
110° at 6 knots 10 miles
Clouds
  • Few at 2,600' AGL
  • Broken at 5,500' AGL
  • Broken at 19,000' AGL
Conditions
  • Light Rain
Temperature Dewpoint
21°C / 70°F 20°C / 68°F
Humidity Altimeter Pressure
94% 30.01" Hg 1016.5 hPa
Current Rain
0.005